Time;durP1;ratioP1;P1;durP2;ratioP2;P2;SDS_P1;SDS_P2;PMS_P1;PMS_P2;Temp;Humidity;BMP_temperature;BMP_pressure;BME280_temperature;BME280_humidity;BME280_pressure;Samples;Min_cycle;Max_cycle;Signal;HPM_P1;HPM_P2
2023/11/28 00:35:45;;;;;;;18.77;7.93;;;3.80;99.90;;;;;;739029;174;26455;-90
2023/11/28 00:38:15;;;;;;;14.17;9.03;;;3.60;99.90;;;;;;793428;180;26448;-90
2023/11/28 00:40:48;;;;;;;13.60;9.57;;;3.70;99.90;;;;;;793459;181;26447;-90
2023/11/28 00:43:18;;;;;;;11.17;8.20;;;3.60;99.90;;;;;;796404;178;26427;-90
2023/11/28 00:45:47;;;;;;;13.07;8.47;;;3.70;99.90;;;;;;774905;178;26518;-93
2023/11/28 00:48:23;;;;;;;18.53;10.63;;;3.60;99.90;;;;;;772029;186;26486;-90
2023/11/28 00:50:51;;;;;;;21.60;11.50;;;3.60;99.90;;;;;;771341;186;26476;-90
2023/11/28 00:53:19;;;;;;;15.10;10.20;;;3.60;99.90;;;;;;767246;186;26556;-90
2023/11/28 00:55:56;;;;;;;18.83;11.57;;;3.40;99.90;;;;;;768766;186;26495;-90
2023/11/28 07:25:37;;;;;;;19.87;15.37;;;3.30;94.70;;;;;;746845;187;28240;-91
2023/11/28 07:28:21;;;;;;;15.90;13.47;;;3.30;94.00;;;;;;778301;183;27221;-90
2023/11/28 07:30:54;;;;;;;19.77;15.10;;;3.20;94.30;;;;;;784816;177;26506;-91
2023/11/28 08:15:25;;;;;;;15.50;11.40;;;3.20;93.50;;;;;;734136;175;26843;31
2023/11/28 08:18:01;;;;;;;12.60;11.30;;;3.30;94.10;;;;;;765180;186;26532;-92
2023/11/28 08:20:39;;;;;;;;;;;;;;;;;;;;;
2023/11/28 08:23:08;;;;;;;10.90;9.77;;;3.20;93.00;;;;;;794337;180;27107;-92
2023/11/28 08:25:36;;;;;;;15.27;10.63;;;3.10;92.60;;;;;;794405;178;26445;-91
2023/11/28 08:28:03;;;;;;;16.70;12.43;;;3.10;92.70;;;;;;794419;179;26992;-91
2023/11/28 08:30:40;;;;;;;13.03;9.87;;;3.10;92.70;;;;;;794376;181;26454;-91
2023/11/28 08:33:13;;;;;;;13.00;9.43;;;3.20;92.30;;;;;;794350;180;27009;-91
2023/11/28 08:35:40;;;;;;;13.20;10.80;;;3.20;93.00;;;;;;794331;178;26517;-90
2023/11/28 08:38:06;;;;;;;10.33;9.20;;;3.20;93.10;;;;;;794178;180;26529;-90
2023/11/28 08:40:35;;;;;;;10.77;9.33;;;3.30;92.20;;;;;;793583;179;26536;-90
2023/11/28 08:43:02;;;;;;;8.77;7.60;;;3.20;91.80;;;;;;793844;178;26548;-91
2023/11/28 08:45:43;;;;;;;8.93;8.03;;;3.30;91.80;;;;;;793539;178;26453;-91
2023/11/28 08:48:10;;;;;;;6.83;6.13;;;3.20;91.60;;;;;;793557;180;26475;-91
2023/11/28 08:50:37;;;;;;;7.97;5.97;;;3.20;90.80;;;;;;793534;180;26994;-91
2023/11/28 08:53:07;;;;;;;6.87;5.40;;;3.10;90.60;;;;;;781391;179;28211;-91
2023/11/28 08:55:33;;;;;;;7.93;6.67;;;3.10;91.20;;;;;;796980;177;26520;-91
2023/11/28 08:58:08;;;;;;;8.10;6.37;;;3.10;91.10;;;;;;795491;179;26462;-91
2023/11/28 09:00:35;;;;;;;7.30;6.57;;;3.10;90.90;;;;;;795080;181;26471;-91
2023/11/28 09:03:07;;;;;;;11.73;7.33;;;3.10;90.60;;;;;;794894;179;26483;-91
2023/11/28 09:05:35;;;;;;;7.23;6.03;;;3.20;92.00;;;;;;794204;178;27150;-92
2023/11/28 09:08:03;;;;;;;9.80;8.10;;;3.10;91.20;;;;;;794388;179;26473;-91
2023/11/28 09:10:36;;;;;;;9.33;6.90;;;3.20;92.20;;;;;;794382;180;26458;-91
2023/11/28 09:13:04;;;;;;;9.87;7.87;;;3.20;91.00;;;;;;795381;178;26530;-91
2023/11/28 09:15:32;;;;;;;7.17;6.20;;;3.30;92.20;;;;;;793973;178;27102;-92
2023/11/28 09:18:00;;;;;;;7.00;5.53;;;3.30;90.70;;;;;;793971;179;26516;-91
2023/11/28 09:20:33;;;;;;;6.63;5.00;;;3.40;90.10;;;;;;794019;181;26454;-91
2023/11/28 09:23:03;;;;;;;6.50;5.40;;;3.40;88.90;;;;;;794016;180;26447;-91
2023/11/28 09:25:32;;;;;;;7.03;6.07;;;3.30;88.70;;;;;;794151;178;27074;-91
2023/11/28 09:28:00;;;;;;;5.50;4.80;;;3.40;90.40;;;;;;794238;180;26458;-92
2023/11/28 09:33:16;;;;;;;6.50;5.50;;;3.40;88.70;;;;;;794196;180;27023;-92
2023/11/28 09:35:53;;;;;;;7.83;5.63;;;3.50;90.20;;;;;;793591;178;26467;-91
2023/11/28 09:38:20;;;;;;;5.90;4.27;;;3.60;90.90;;;;;;793607;180;26488;-93
2023/11/28 09:40:50;;;;;;;5.43;4.90;;;3.70;89.60;;;;;;793555;181;26446;-91
2023/11/28 09:43:24;;;;;;;5.67;4.87;;;3.70;90.30;;;;;;794499;180;26454;-91
2023/11/28 09:45:51;;;;;;;5.33;4.80;;;3.70;90.10;;;;;;793862;178;27016;-90
2023/11/28 09:48:22;;;;;;;6.00;5.20;;;3.70;90.00;;;;;;791724;181;26454;-92
2023/11/28 09:51:08;;;;;;;5.33;4.67;;;3.80;90.50;;;;;;794302;180;26450;-93
2023/11/28 09:53:43;;;;;;;4.40;4.00;;;3.60;88.10;;;;;;793867;180;27001;-91
2023/11/28 09:56:11;;;;;;;7.13;4.97;;;3.50;90.00;;;;;;793806;178;26470;-92
2023/11/28 09:58:38;;;;;;;6.63;5.43;;;3.50;89.60;;;;;;793669;178;27016;-91
2023/11/28 10:09:59;;;;;;;5.07;4.13;;;3.50;86.50;;;;;;795019;178;26450;-92
2023/11/28 10:12:36;;;;;;;5.97;5.07;;;3.60;88.10;;;;;;796022;179;28064;-92
2023/11/28 10:15:17;;;;;;;4.17;3.80;;;3.60;86.70;;;;;;795750;179;26450;-92
2023/11/28 10:17:50;;;;;;;4.07;3.53;;;3.60;87.00;;;;;;794832;179;26462;-92
2023/11/28 10:20:29;;;;;;;5.60;5.03;;;3.60;86.60;;;;;;795028;179;27040;-92
2023/11/28 10:23:13;;;;;;;4.93;4.43;;;3.60;89.30;;;;;;794632;180;26484;-92
2023/11/28 10:25:48;;;;;;;5.17;4.60;;;3.70;86.10;;;;;;794368;178;26458;-91
2023/11/28 10:28:27;;;;;;;4.83;4.07;;;3.70;86.70;;;;;;794474;180;26450;-92
2023/11/28 10:31:16;;;;;;;4.20;3.80;;;3.70;83.50;;;;;;794821;180;26501;-93
2023/11/28 10:39:32;;;;;;;5.00;4.30;;;3.80;85.70;;;;;;717889;177;26861;-94
2023/11/28 10:42:06;;;;;;;4.30;3.83;;;3.70;86.20;;;;;;777999;178;26470;-93
2023/11/28 10:44:36;;;;;;;4.73;4.00;;;3.60;85.20;;;;;;777349;183;26519;-90
2023/11/28 10:47:12;;;;;;;4.90;3.60;;;3.80;84.60;;;;;;777179;180;26540;-92
2023/11/28 10:49:49;;;;;;;4.33;3.60;;;3.80;84.20;;;;;;776843;185;26458;-92
2023/11/28 10:55:15;;;;;;;4.73;4.17;;;3.80;85.90;;;;;;777033;180;26540;-91
2023/11/28 11:12:25;;;;;;;4.77;3.67;;;3.90;81.70;;;;;;699269;174;26607;-93
2023/11/28 11:14:56;;;;;;;4.30;3.63;;;3.90;85.30;;;;;;736543;191;26585;-92
2023/11/28 11:17:57;;;;;;;5.53;4.40;;;3.80;83.20;;;;;;812718;173;26501;-93
2023/11/28 11:20:41;;;;;;;5.80;4.20;;;3.90;87.60;;;;;;824122;172;26427;-93
2023/11/28 11:23:15;;;;;;;4.37;3.97;;;3.90;85.20;;;;;;823165;174;26385;-92
2023/11/28 11:25:52;;;;;;;5.30;3.90;;;4.10;84.90;;;;;;798966;177;29127;-92
2023/11/28 11:28:22;;;;;;;6.53;4.90;;;3.90;80.70;;;;;;754307;190;28189;-93
2023/11/28 11:30:57;;;;;;;4.53;3.73;;;3.80;82.90;;;;;;753509;188;26535;-94
2023/11/28 11:33:27;;;;;;;5.57;4.07;;;4.00;81.80;;;;;;753143;191;26567;-92
2023/11/28 11:36:14;;;;;;;4.83;4.33;;;4.10;81.60;;;;;;752097;191;30445;-92
2023/11/28 11:38:40;;;;;;;4.53;3.50;;;3.90;79.30;;;;;;750434;191;26616;-92
2023/11/28 11:41:10;;;;;;;4.27;3.83;;;4.00;79.10;;;;;;750304;191;26593;-92
2023/11/28 11:43:41;;;;;;;4.60;3.83;;;4.10;79.60;;;;;;750324;188;26580;-93
2023/11/28 11:46:10;;;;;;;4.67;4.00;;;4.20;78.40;;;;;;750163;191;26595;-92
2023/11/28 11:48:36;;;;;;;5.50;3.90;;;4.10;81.70;;;;;;750257;188;26544;-93
2023/11/28 11:51:04;;;;;;;4.77;3.57;;;4.10;81.10;;;;;;750384;191;28127;-92
2023/11/28 11:53:34;;;;;;;5.33;3.93;;;4.20;82.60;;;;;;750263;187;27079;-92
2023/11/28 11:56:04;;;;;;;4.33;3.70;;;4.20;80.50;;;;;;749987;188;26541;-93
2023/11/28 11:58:32;;;;;;;3.60;3.00;;;4.20;80.40;;;;;;749718;188;26517;-92
2023/11/28 12:01:19;;;;;;;;;;;;;;;;;;;;;
2023/11/28 12:03:49;;;;;;;3.70;3.10;;;4.10;77.10;;;;;;749858;191;27051;-89
2023/11/28 12:08:54;;;;;;;2.70;2.50;;;4.00;76.10;;;;;;750038;191;26848;-91
2023/11/28 12:11:24;;;;;;;3.47;2.87;;;4.00;75.00;;;;;;749982;191;26542;-93
2023/11/28 12:13:55;;;;;;;5.63;3.00;;;4.00;74.80;;;;;;749901;191;26526;-92
2023/11/28 12:16:29;;;;;;;4.80;3.53;;;4.20;77.10;;;;;;749935;188;26549;-92
2023/11/28 12:18:56;;;;;;;4.90;3.73;;;4.10;77.50;;;;;;749638;191;27037;-93
2023/11/28 12:21:25;;;;;;;3.10;2.83;;;4.20;81.50;;;;;;749777;191;26526;-92
2023/11/28 12:23:54;;;;;;;5.53;3.50;;;4.10;74.90;;;;;;749897;191;26536;-92
2023/11/28 12:26:34;;;;;;;5.93;3.17;;;4.20;78.40;;;;;;751075;188;26556;-93
2023/11/28 12:29:08;;;;;;;5.63;4.37;;;4.10;73.90;;;;;;754267;189;26502;-93
2023/11/28 12:31:38;;;;;;;5.87;3.97;;;4.10;77.50;;;;;;753639;191;26559;-93
2023/11/28 12:34:12;;;;;;;5.43;4.10;;;4.20;78.90;;;;;;751959;189;26898;-92
2023/11/28 12:51:03;;;;;;;5.73;5.03;;;4.20;78.40;;;;;;732288;177;26554;-91
2023/11/28 12:53:42;;;;;;;10.20;5.00;;;4.30;83.60;;;;;;782309;183;26483;-92
2023/11/28 12:56:46;;;;;;;;;;;;;;;;;;;;;
2023/11/28 12:59:36;;;;;;;7.57;5.20;;;4.20;77.90;;;;;;775284;181;28103;-93
2023/11/28 20:20:41;;;;;;;50.17;25.80;;;1.10;93.60;;;;;;747484;189;26535;-91
2023/11/28 21:22:11;;;;;;;43.93;23.20;;;0.80;93.10;;;;;;784275;176;28093;-90
2023/11/28 21:25:00;;;;;;;64.70;29.83;;;0.90;93.10;;;;;;824599;172;26446;-93
2023/11/28 21:36:40;;;;;;;;;;;;;;;;;;;;;
2023/11/28 21:39:07;;;;;;;21.97;12.67;;;1.10;93.50;;;;;;840006;169;26362;-91
